Time;durP1;ratioP1;P1;durP2;ratioP2;P2;SDS_P1;SDS_P2;PMS_P1;PMS_P2;Temp;Humidity;BMP_temperature;BMP_pressure;BME280_temperature;BME280_humidity;BME280_pressure;Samples;Min_cycle;Max_cycle;Signal;HPM_P1;HPM_P2
2024/01/07 00:02:11;;;;;;;34.88;22.58;;;5.40;99.90;;;;;;5035639;28;20052;-76
2024/01/07 00:04:37;;;;;;;36.85;22.60;;;5.50;99.90;;;;;;5034133;28;20127;-77
2024/01/07 00:07:05;;;;;;;39.50;22.38;;;5.50;99.90;;;;;;5033301;28;20175;-76
2024/01/07 00:09:30;;;;;;;38.13;22.85;;;5.40;99.90;;;;;;5036657;28;20342;-77
2024/01/07 00:11:56;;;;;;;37.33;24.13;;;5.40;99.90;;;;;;5038075;28;20020;-76
2024/01/07 00:14:22;;;;;;;38.97;23.98;;;5.40;99.90;;;;;;5036807;28;20082;-76
2024/01/07 00:16:47;;;;;;;37.75;23.55;;;5.40;99.90;;;;;;5034719;28;20553;-76
2024/01/07 00:19:13;;;;;;;38.97;24.50;;;5.50;99.90;;;;;;5039464;28;20032;-77
2024/01/07 00:21:39;;;;;;;39.42;23.42;;;5.40;99.90;;;;;;5033966;28;20082;-77
2024/01/07 00:24:05;;;;;;;37.15;23.02;;;5.40;99.90;;;;;;5036346;28;20047;-74
2024/01/07 00:26:31;;;;;;;38.47;24.95;;;5.40;99.90;;;;;;5041712;28;20222;-76
2024/01/07 00:28:56;;;;;;;37.03;23.52;;;5.40;99.90;;;;;;5040490;28;20060;-76
2024/01/07 00:31:22;;;;;;;42.05;24.25;;;5.40;99.90;;;;;;5033415;28;20053;-76
2024/01/07 00:33:48;;;;;;;41.22;24.77;;;5.40;99.90;;;;;;5044910;28;20481;-76
2024/01/07 00:36:13;;;;;;;39.05;23.48;;;5.40;99.90;;;;;;5034402;28;20029;-78
2024/01/07 00:38:39;;;;;;;42.00;23.25;;;5.40;99.90;;;;;;5035293;28;20045;-77
2024/01/07 00:41:05;;;;;;;40.42;24.27;;;5.40;99.90;;;;;;5033383;28;20025;-73
2024/01/07 00:43:31;;;;;;;44.05;25.13;;;5.30;99.90;;;;;;5039083;28;20020;-77
2024/01/07 00:45:57;;;;;;;44.85;26.02;;;5.40;99.90;;;;;;5037957;28;20056;-72
2024/01/07 00:48:23;;;;;;;47.00;26.10;;;5.30;99.90;;;;;;5034162;28;20472;-76
2024/01/07 00:50:48;;;;;;;45.63;26.08;;;5.30;99.90;;;;;;5037566;28;20047;-72
2024/01/07 00:53:14;;;;;;;46.17;24.65;;;5.20;99.90;;;;;;5036575;28;20026;-78
2024/01/07 00:55:40;;;;;;;48.10;25.70;;;5.20;99.90;;;;;;5032945;28;20033;-73
2024/01/07 00:58:06;;;;;;;43.05;25.15;;;5.20;99.90;;;;;;5035731;28;20457;-77
2024/01/07 01:00:31;;;;;;;48.55;25.98;;;5.10;99.90;;;;;;5039845;28;20037;-77
2024/01/07 01:02:58;;;;;;;49.53;27.30;;;5.10;99.90;;;;;;5037985;28;20083;-78
2024/01/07 01:05:24;;;;;;;45.78;25.80;;;5.10;99.90;;;;;;5036321;28;20458;-76
2024/01/07 01:07:50;;;;;;;53.33;28.50;;;5.20;99.90;;;;;;5033499;28;20104;-77
2024/01/07 01:10:16;;;;;;;44.97;26.20;;;5.10;99.90;;;;;;5037787;28;20058;-71
2024/01/07 01:12:43;;;;;;;47.20;27.45;;;5.10;99.90;;;;;;5039065;28;20415;-78
2024/01/07 01:15:09;;;;;;;50.30;28.30;;;5.10;99.90;;;;;;5038134;28;20037;-75
2024/01/07 01:17:35;;;;;;;49.47;28.48;;;5.10;99.90;;;;;;5038910;28;20640;-76
2024/01/07 01:20:01;;;;;;;46.42;27.85;;;5.20;99.90;;;;;;5040226;28;20088;-74
2024/01/07 01:22:27;;;;;;;47.78;26.48;;;5.20;99.90;;;;;;5041472;28;20381;-77
2024/01/07 01:24:53;;;;;;;45.95;25.77;;;5.20;99.90;;;;;;5036555;28;20083;-76
2024/01/07 01:27:19;;;;;;;45.13;26.85;;;5.20;99.90;;;;;;5033791;28;20040;-76
2024/01/07 01:29:45;;;;;;;45.28;26.80;;;5.10;99.90;;;;;;5035956;28;20029;-78
2024/01/07 01:32:10;;;;;;;47.30;26.58;;;5.20;99.90;;;;;;5037109;28;20390;-78
2024/01/07 01:34:36;;;;;;;47.30;27.40;;;5.10;99.90;;;;;;5037936;28;20033;-78
2024/01/07 01:37:03;;;;;;;43.38;24.83;;;5.20;99.90;;;;;;5036854;28;20438;-72
2024/01/07 01:39:29;;;;;;;45.08;26.40;;;5.20;99.90;;;;;;5038086;28;20516;-78
2024/01/07 01:41:55;;;;;;;44.88;26.00;;;5.20;99.90;;;;;;5042183;28;20477;-77
2024/01/07 01:44:21;;;;;;;48.05;27.65;;;5.20;99.90;;;;;;5032612;28;20490;-78
2024/01/07 01:46:47;;;;;;;44.55;25.67;;;5.10;99.90;;;;;;5036800;28;20028;-77
2024/01/07 01:49:13;;;;;;;47.58;27.35;;;5.10;99.90;;;;;;5036560;28;20025;-77
2024/01/07 01:51:39;;;;;;;43.67;26.63;;;5.10;99.90;;;;;;5040547;28;20029;-74
2024/01/07 01:54:06;;;;;;;45.33;25.92;;;5.20;99.90;;;;;;5038403;28;20036;-78
2024/01/07 01:56:33;;;;;;;41.65;24.08;;;5.20;99.90;;;;;;5044183;28;20029;-78
2024/01/07 01:59:00;;;;;;;43.47;26.13;;;5.20;99.90;;;;;;5036707;28;20032;-77
2024/01/07 02:01:26;;;;;;;46.83;25.50;;;5.20;99.90;;;;;;5039954;28;20389;-79
2024/01/07 02:03:53;;;;;;;47.33;26.35;;;5.10;99.90;;;;;;5038834;28;20045;-79
2024/01/07 02:06:20;;;;;;;40.75;23.33;;;5.20;99.90;;;;;;5038002;28;20089;-79
2024/01/07 02:08:46;;;;;;;46.15;27.23;;;5.10;99.90;;;;;;5039237;28;20021;-76
2024/01/07 02:11:16;;;;;;;43.92;24.95;;;5.20;99.90;;;;;;5040924;28;20031;-79
2024/01/07 02:13:41;;;;;;;44.42;25.75;;;5.10;99.90;;;;;;5031535;28;20482;-77
2024/01/07 02:16:07;;;;;;;44.47;25.77;;;5.10;99.90;;;;;;5035878;28;20097;-74
2024/01/07 02:18:33;;;;;;;43.17;24.42;;;5.10;99.90;;;;;;5036300;28;20363;-79
2024/01/07 02:20:59;;;;;;;42.40;24.65;;;5.20;99.90;;;;;;5038969;28;20226;-78
2024/01/07 02:23:24;;;;;;;44.17;25.48;;;5.20;99.90;;;;;;5036171;28;20100;-77
2024/01/07 02:25:50;;;;;;;45.72;26.55;;;5.20;99.90;;;;;;5037453;28;20474;-79
2024/01/07 02:28:16;;;;;;;47.03;27.88;;;5.20;99.90;;;;;;5037000;28;20475;-79
2024/01/07 02:30:42;;;;;;;40.25;23.75;;;5.30;99.90;;;;;;5036648;28;20022;-77
2024/01/07 02:33:07;;;;;;;43.47;25.50;;;5.30;99.90;;;;;;5039015;28;20035;-79
2024/01/07 02:35:33;;;;;;;43.55;26.48;;;5.00;99.90;;;;;;5033290;28;20635;-77
2024/01/07 02:37:59;;;;;;;41.70;23.35;;;5.10;99.90;;;;;;5039337;28;20047;-75
2024/01/07 02:40:24;;;;;;;41.42;24.77;;;5.20;99.90;;;;;;5040968;28;20370;-79
2024/01/07 02:42:50;;;;;;;42.40;24.80;;;5.20;99.90;;;;;;5034257;28;20399;-79
2024/01/07 02:45:16;;;;;;;44.05;25.05;;;5.30;99.90;;;;;;5035504;28;20032;-79
2024/01/07 02:47:42;;;;;;;46.38;25.80;;;5.30;99.90;;;;;;5035201;28;20087;-76
2024/01/07 02:50:07;;;;;;;46.60;25.80;;;5.30;99.90;;;;;;5039907;28;20119;-79
2024/01/07 02:52:33;;;;;;;44.15;26.15;;;5.30;99.90;;;;;;5034044;28;20489;-80
2024/01/07 02:55:01;;;;;;;48.97;25.85;;;5.30;99.90;;;;;;5036910;28;20091;-78
2024/01/07 02:57:27;;;;;;;41.65;24.23;;;5.20;99.90;;;;;;5033520;28;20036;-79
2024/01/07 02:59:53;;;;;;;48.05;26.80;;;5.10;99.90;;;;;;5034454;28;20025;-80
2024/01/07 03:02:19;;;;;;;49.67;26.42;;;5.00;99.90;;;;;;5035547;28;20025;-79
2024/01/07 03:04:44;;;;;;;48.25;25.48;;;5.00;99.90;;;;;;5034954;28;20031;-79
2024/01/07 03:07:10;;;;;;;50.70;25.73;;;5.10;99.90;;;;;;5042799;28;20029;-79
2024/01/07 03:09:36;;;;;;;49.42;27.50;;;5.10;99.90;;;;;;5034743;28;20036;-75
2024/01/07 03:12:01;;;;;;;53.10;28.88;;;5.20;99.90;;;;;;5032007;28;20030;-78
2024/01/07 03:14:27;;;;;;;47.70;26.77;;;5.20;99.90;;;;;;5037804;28;20045;-79
2024/01/07 03:16:53;;;;;;;47.67;27.25;;;5.30;99.90;;;;;;5034052;28;20101;-79
2024/01/07 03:19:19;;;;;;;46.40;25.25;;;5.20;99.90;;;;;;5037105;28;20398;-79
2024/01/07 03:21:44;;;;;;;50.10;26.02;;;5.20;99.90;;;;;;5040756;28;20436;-79
2024/01/07 03:24:10;;;;;;;49.90;25.08;;;5.10;99.90;;;;;;5041310;28;20020;-79
2024/01/07 03:26:36;;;;;;;45.85;23.92;;;5.10;99.90;;;;;;5032955;28;20029;-71
2024/01/07 03:29:02;;;;;;;46.58;23.55;;;4.90;99.90;;;;;;5035518;28;20366;-77
2024/01/07 03:31:28;;;;;;;53.78;26.50;;;4.90;99.90;;;;;;5035058;28;20079;-79
2024/01/07 03:33:55;;;;;;;53.72;26.50;;;4.80;99.90;;;;;;5034809;28;20049;-79
2024/01/07 03:36:20;;;;;;;53.40;27.92;;;4.80;99.90;;;;;;5041438;28;20021;-80
2024/01/07 03:38:46;;;;;;;57.00;27.15;;;4.80;99.90;;;;;;5036425;28;20363;-79
2024/01/07 03:41:19;;;;;;;64.78;30.63;;;4.80;99.90;;;;;;5040688;28;20022;-79
2024/01/07 03:43:48;;;;;;;64.60;30.67;;;4.80;99.90;;;;;;5036276;28;20026;-76
2024/01/07 03:46:14;;;;;;;65.95;31.80;;;4.80;99.90;;;;;;5032581;28;20036;-77
2024/01/07 03:48:41;;;;;;;66.70;30.95;;;4.70;99.90;;;;;;5038180;28;20540;-79
2024/01/07 03:51:06;;;;;;;70.88;30.58;;;4.70;99.90;;;;;;5041737;28;20108;-79
2024/01/07 03:53:33;;;;;;;72.13;32.22;;;4.80;99.90;;;;;;5034996;28;20473;-79
2024/01/07 03:55:58;;;;;;;71.80;30.58;;;4.80;99.90;;;;;;5039754;28;20103;-79
2024/01/07 03:58:24;;;;;;;67.25;31.02;;;4.70;99.90;;;;;;5040226;28;20100;-79
2024/01/07 04:00:50;;;;;;;67.68;31.48;;;4.70;99.90;;;;;;5036770;28;20467;-79
2024/01/07 04:03:15;;;;;;;64.03;30.35;;;4.80;99.90;;;;;;5035514;28;20025;-74
2024/01/07 04:05:41;;;;;;;68.53;30.20;;;4.80;99.90;;;;;;5035615;28;20035;-76
2024/01/07 04:08:10;;;;;;;64.50;28.13;;;4.90;99.90;;;;;;5038373;28;20025;-80
2024/01/07 04:10:36;;;;;;;61.92;27.92;;;4.70;99.90;;;;;;5036716;28;20471;-79
2024/01/07 04:13:02;;;;;;;66.32;29.45;;;4.80;99.90;;;;;;5039675;28;20103;-80
2024/01/07 04:15:27;;;;;;;60.83;29.58;;;4.80;99.90;;;;;;5041846;28;20494;-80
2024/01/07 04:17:53;;;;;;;58.22;27.35;;;4.80;99.90;;;;;;5041338;28;20119;-79
2024/01/07 04:20:19;;;;;;;58.95;28.63;;;4.80;99.90;;;;;;5047913;28;20413;-74
2024/01/07 04:22:44;;;;;;;61.30;26.98;;;4.80;99.90;;;;;;5041955;28;20039;-79
2024/01/07 04:25:10;;;;;;;53.70;26.02;;;4.90;99.90;;;;;;5044587;28;20021;-79
2024/01/07 04:27:37;;;;;;;57.28;28.10;;;4.90;99.90;;;;;;5049042;28;20033;-79
2024/01/07 04:30:04;;;;;;;52.13;26.08;;;4.90;99.90;;;;;;5039454;28;20044;-80
2024/01/07 04:32:30;;;;;;;54.33;26.40;;;4.90;99.90;;;;;;5045534;28;20533;-79
2024/01/07 04:34:57;;;;;;;46.50;24.00;;;4.90;99.90;;;;;;5041577;28;20108;-79
2024/01/07 04:37:23;;;;;;;43.40;22.25;;;4.80;99.90;;;;;;5042651;28;20033;-78
2024/01/07 04:39:49;;;;;;;40.85;20.85;;;4.80;99.90;;;;;;5038518;28;20056;-80
2024/01/07 04:42:16;;;;;;;44.88;23.05;;;4.70;99.90;;;;;;5042952;28;20032;-80
2024/01/07 04:44:42;;;;;;;41.45;22.13;;;4.70;99.90;;;;;;5039435;28;20026;-79
2024/01/07 04:47:27;;;;;;;39.83;22.25;;;4.70;99.90;;;;;;5043577;28;20040;-81
2024/01/07 04:49:53;;;;;;;41.05;21.17;;;4.60;99.90;;;;;;5041747;28;20030;-79
2024/01/07 04:52:19;;;;;;;39.10;20.20;;;4.60;99.90;;;;;;5046476;28;20517;-79
2024/01/07 04:54:44;;;;;;;39.38;20.83;;;4.60;99.90;;;;;;5044488;28;20477;-79
2024/01/07 04:57:10;;;;;;;36.33;18.73;;;4.60;99.90;;;;;;5043901;28;20026;-79
2024/01/07 04:59:36;;;;;;;35.08;19.48;;;4.70;99.90;;;;;;5042507;28;20029;-80
2024/01/07 05:02:02;;;;;;;40.53;21.55;;;4.70;99.90;;;;;;5042316;28;20021;-80
2024/01/07 05:04:28;;;;;;;41.13;21.50;;;4.60;99.90;;;;;;5044451;28;20033;-80
2024/01/07 05:06:54;;;;;;;39.70;21.25;;;4.60;99.90;;;;;;5041928;28;20018;-80
2024/01/07 05:09:20;;;;;;;39.88;22.55;;;4.50;99.90;;;;;;5042327;28;20052;-79
2024/01/07 05:11:46;;;;;;;41.00;21.70;;;4.60;99.90;;;;;;5043043;28;20478;-81
2024/01/07 05:14:11;;;;;;;36.13;19.80;;;4.50;99.90;;;;;;5036574;28;20482;-81
2024/01/07 05:16:38;;;;;;;38.58;20.73;;;4.50;99.90;;;;;;5039534;28;20315;-80
2024/01/07 05:19:04;;;;;;;37.50;21.70;;;4.50;99.90;;;;;;5052429;28;20546;-81
2024/01/07 05:21:30;;;;;;;37.45;20.08;;;4.60;99.90;;;;;;5047761;28;20068;-81
2024/01/07 05:23:55;;;;;;;37.35;20.63;;;4.60;99.90;;;;;;5050673;28;20026;-79
2024/01/07 05:26:22;;;;;;;38.25;21.17;;;4.70;99.90;;;;;;5038729;28;20053;-80
2024/01/07 05:28:47;;;;;;;35.53;19.50;;;4.60;99.90;;;;;;5041501;28;20072;-81
2024/01/07 05:31:17;;;;;;;33.13;18.83;;;4.60;99.90;;;;;;5045969;28;20537;-78
2024/01/07 05:33:43;;;;;;;36.30;19.02;;;4.50;99.90;;;;;;5044549;28;20048;-80
2024/01/07 05:36:10;;;;;;;31.00;18.45;;;4.40;99.90;;;;;;5044895;28;20033;-80
2024/01/07 05:38:35;;;;;;;29.38;16.80;;;4.50;99.90;;;;;;5045643;28;20398;-80
2024/01/07 05:41:01;;;;;;;31.45;16.83;;;4.40;99.90;;;;;;5050938;28;20112;-79
2024/01/07 05:43:27;;;;;;;34.03;19.35;;;4.40;99.90;;;;;;5047995;28;20032;-80
2024/01/07 05:45:54;;;;;;;30.17;19.02;;;4.40;99.90;;;;;;5045693;28;20107;-80
2024/01/07 05:48:22;;;;;;;30.85;19.25;;;4.40;99.90;;;;;;5041291;28;20025;-81
2024/01/07 05:50:48;;;;;;;29.27;19.17;;;4.50;99.90;;;;;;5045759;28;20071;-80
2024/01/07 05:53:13;;;;;;;34.40;18.73;;;4.50;99.90;;;;;;5051196;28;20485;-80
2024/01/07 05:55:39;;;;;;;31.80;17.40;;;4.50;99.90;;;;;;5044631;28;20028;-80
2024/01/07 05:58:05;;;;;;;29.80;16.75;;;4.20;99.90;;;;;;5044422;28;20033;-80
2024/01/07 06:00:31;;;;;;;28.60;16.33;;;4.30;99.90;;;;;;5040021;28;20046;-81
2024/01/07 06:02:57;;;;;;;30.85;16.60;;;4.30;99.90;;;;;;5043146;28;20025;-80
2024/01/07 06:05:23;;;;;;;25.70;15.88;;;4.10;99.90;;;;;;5043485;28;20029;-80
2024/01/07 06:07:48;;;;;;;25.45;16.30;;;4.10;99.90;;;;;;5043298;28;20029;-81
2024/01/07 06:10:14;;;;;;;27.77;16.25;;;4.00;99.90;;;;;;5047137;28;20033;-81
2024/01/07 06:12:40;;;;;;;24.33;15.98;;;4.00;99.90;;;;;;5045276;28;20064;-80
2024/01/07 06:15:06;;;;;;;24.67;16.60;;;4.10;99.90;;;;;;5044611;28;20063;-80
2024/01/07 06:17:33;;;;;;;26.60;16.88;;;4.20;99.90;;;;;;5044783;28;20025;-80
2024/01/07 06:19:58;;;;;;;24.83;16.55;;;4.30;99.90;;;;;;5041175;28;20036;-80
2024/01/07 06:22:24;;;;;;;26.17;16.95;;;4.10;99.90;;;;;;5045747;28;20394;-80
2024/01/07 06:24:50;;;;;;;24.92;16.40;;;4.30;99.90;;;;;;5046241;28;20068;-78
2024/01/07 06:27:16;;;;;;;26.75;17.60;;;4.30;99.90;;;;;;5048876;28;20120;-77
2024/01/07 06:29:41;;;;;;;26.85;16.88;;;4.30;99.90;;;;;;5051585;28;20521;-80
2024/01/07 06:32:07;;;;;;;26.23;16.15;;;4.30;99.90;;;;;;5045643;28;20393;-80
2024/01/07 06:34:33;;;;;;;23.70;16.20;;;4.30;99.90;;;;;;5048216;28;20389;-80
2024/01/07 06:36:59;;;;;;;25.38;16.08;;;4.30;99.90;;;;;;5048269;28;20025;-76
2024/01/07 06:39:27;;;;;;;26.17;17.13;;;4.20;99.90;;;;;;5045938;28;20497;-80
2024/01/07 06:41:53;;;;;;;25.85;16.27;;;4.30;99.90;;;;;;5042368;28;20032;-80
2024/01/07 06:44:19;;;;;;;28.75;17.20;;;4.30;99.90;;;;;;5042448;28;20179;-79
2024/01/07 06:46:45;;;;;;;26.83;16.83;;;4.20;99.90;;;;;;5043215;28;20487;-80
2024/01/07 06:49:11;;;;;;;30.02;18.85;;;4.40;99.90;;;;;;5037708;28;20557;-79
2024/01/07 06:51:38;;;;;;;28.13;18.15;;;4.40;99.90;;;;;;5043318;28;20029;-80
2024/01/07 06:54:04;;;;;;;27.83;17.80;;;4.40;99.90;;;;;;5043005;28;20025;-78
2024/01/07 06:56:30;;;;;;;26.40;16.83;;;4.40;99.90;;;;;;5042811;28;20099;-78
2024/01/07 06:58:56;;;;;;;25.52;17.05;;;4.40;99.90;;;;;;5044103;28;20037;-80
2024/01/07 07:01:23;;;;;;;27.67;18.48;;;4.40;99.90;;;;;;5045150;28;20032;-80
2024/01/07 07:03:50;;;;;;;31.42;18.08;;;4.40;99.90;;;;;;5045373;28;20037;-79
2024/01/07 07:06:16;;;;;;;28.10;17.33;;;4.40;99.90;;;;;;5045309;28;20020;-80
2024/01/07 07:08:42;;;;;;;26.58;16.92;;;4.30;99.90;;;;;;5046010;28;20475;-76
2024/01/07 07:11:08;;;;;;;25.30;16.65;;;4.30;99.90;;;;;;5043382;28;20389;-80
2024/01/07 07:13:33;;;;;;;25.48;15.50;;;4.20;99.90;;;;;;5045055;28;21979;-80
2024/01/07 07:16:00;;;;;;;23.33;14.85;;;4.10;99.90;;;;;;5041357;28;20036;-79
2024/01/07 07:18:25;;;;;;;23.08;15.43;;;4.00;99.90;;;;;;5044740;28;20025;-75
2024/01/07 07:20:51;;;;;;;22.15;15.07;;;4.00;99.90;;;;;;5040119;28;20477;-80
2024/01/07 07:23:17;;;;;;;25.40;15.85;;;4.00;99.90;;;;;;5046556;28;20506;-80
2024/01/07 07:25:43;;;;;;;22.55;15.23;;;3.90;99.90;;;;;;5044686;28;20021;-80
2024/01/07 07:28:09;;;;;;;21.98;14.82;;;4.00;99.90;;;;;;5045489;28;20477;-79
2024/01/07 07:30:35;;;;;;;22.63;15.38;;;4.00;99.90;;;;;;5050200;28;20033;-79
2024/01/07 07:33:01;;;;;;;23.63;15.88;;;4.10;99.90;;;;;;5044401;28;20036;-80
2024/01/07 07:35:28;;;;;;;21.35;14.85;;;4.10;99.90;;;;;;5041751;28;20033;-78
2024/01/07 07:37:54;;;;;;;23.98;15.15;;;4.10;99.90;;;;;;5046766;28;20032;-80
2024/01/07 07:40:19;;;;;;;22.45;14.65;;;4.10;99.90;;;;;;5042201;28;20035;-78
2024/01/07 07:42:45;;;;;;;24.58;15.98;;;4.10;99.90;;;;;;5044653;28;20124;-80
2024/01/07 07:45:11;;;;;;;22.70;15.57;;;4.00;99.90;;;;;;5039074;28;20438;-79
2024/01/07 07:47:36;;;;;;;26.60;16.83;;;4.00;99.90;;;;;;5043832;28;20457;-80
2024/01/07 07:50:02;;;;;;;25.58;17.17;;;4.00;99.90;;;;;;5046339;28;20024;-79
2024/01/07 07:52:29;;;;;;;26.27;17.08;;;4.00;99.90;;;;;;5039805;28;20034;-80
2024/01/07 07:54:54;;;;;;;24.67;16.70;;;3.90;99.90;;;;;;5045879;28;20041;-76
2024/01/07 07:57:21;;;;;;;25.58;16.65;;;3.90;99.90;;;;;;5042928;28;20021;-78
2024/01/07 07:59:48;;;;;;;25.77;16.45;;;4.00;99.90;;;;;;5039655;28;20421;-80
2024/01/07 08:02:13;;;;;;;24.35;16.33;;;4.00;99.90;;;;;;5046908;28;20021;-79
2024/01/07 08:04:41;;;;;;;24.55;16.75;;;4.00;99.90;;;;;;5049943;28;20048;-79
2024/01/07 08:07:08;;;;;;;22.13;14.60;;;3.90;99.90;;;;;;5042213;28;20485;-78
2024/01/07 08:09:36;;;;;;;28.10;17.45;;;3.70;99.90;;;;;;5042841;28;20489;-80
2024/01/07 08:12:03;;;;;;;25.52;16.30;;;3.80;99.90;;;;;;5037059;28;20025;-75
2024/01/07 08:14:28;;;;;;;25.50;17.23;;;3.90;99.90;;;;;;5042411;28;20029;-79
2024/01/07 08:16:54;;;;;;;27.08;17.55;;;3.80;99.90;;;;;;5040845;28;20120;-78
2024/01/07 08:19:20;;;;;;;28.27;17.08;;;3.80;99.90;;;;;;5045074;28;20044;-80
2024/01/07 08:21:46;;;;;;;26.02;16.27;;;3.90;99.90;;;;;;5042203;28;20355;-80
2024/01/07 08:24:11;;;;;;;26.08;16.90;;;4.00;99.90;;;;;;5043844;28;20953;-78
2024/01/07 08:26:38;;;;;;;28.63;16.92;;;4.20;99.90;;;;;;5040470;28;20118;-80
2024/01/07 08:29:03;;;;;;;26.77;16.85;;;4.00;99.90;;;;;;5042277;28;20141;-80
2024/01/07 08:31:30;;;;;;;26.83;18.10;;;3.90;99.90;;;;;;5045471;28;20669;-79
2024/01/07 08:33:56;;;;;;;28.05;17.42;;;3.90;99.90;;;;;;5042859;28;20144;-79
2024/01/07 08:36:22;;;;;;;26.05;16.35;;;3.80;99.90;;;;;;5041567;28;20108;-73
2024/01/07 08:38:48;;;;;;;29.02;19.08;;;3.90;99.90;;;;;;5044138;28;20112;-79
2024/01/07 08:41:17;;;;;;;27.05;17.38;;;3.90;99.90;;;;;;5049419;28;20036;-80
2024/01/07 08:43:44;;;;;;;29.85;18.15;;;3.60;99.90;;;;;;5048481;28;20013;-83
2024/01/07 08:46:10;;;;;;;29.15;18.02;;;3.70;99.90;;;;;;5040045;28;20057;-84
2024/01/07 08:48:36;;;;;;;31.63;17.45;;;3.80;99.90;;;;;;5045035;28;20376;-83
2024/01/07 08:51:03;;;;;;;30.35;19.08;;;3.80;99.90;;;;;;5049610;28;20029;-84
2024/01/07 08:53:28;;;;;;;31.45;18.23;;;3.80;99.90;;;;;;5041818;28;20030;-80
2024/01/07 08:55:54;;;;;;;33.10;18.48;;;3.80;99.90;;;;;;5045659;28;20106;-83
2024/01/07 08:58:20;;;;;;;27.88;18.00;;;3.70;99.90;;;;;;5046318;28;20367;-82
2024/01/07 09:00:45;;;;;;;32.50;18.92;;;3.60;99.90;;;;;;5045079;28;20412;-81
2024/01/07 09:03:11;;;;;;;32.97;18.65;;;3.60;99.90;;;;;;5054072;28;20021;-81
2024/01/07 09:05:37;;;;;;;30.40;18.02;;;3.80;99.90;;;;;;5041874;28;20014;-83
2024/01/07 09:08:03;;;;;;;33.70;19.15;;;3.80;99.90;;;;;;5046470;28;20040;-83
2024/01/07 09:10:29;;;;;;;33.63;19.20;;;3.80;99.90;;;;;;5045877;28;20378;-83
2024/01/07 09:12:55;;;;;;;38.05;20.35;;;3.70;99.90;;;;;;5045695;28;20026;-84
2024/01/07 09:15:21;;;;;;;34.17;20.45;;;3.60;99.90;;;;;;5048296;28;20044;-83
2024/01/07 09:17:47;;;;;;;34.08;20.25;;;3.70;99.90;;;;;;5044139;28;20743;-81
2024/01/07 09:20:13;;;;;;;34.08;20.83;;;3.60;99.90;;;;;;5044629;28;20033;-83
2024/01/07 09:22:39;;;;;;;32.63;20.08;;;3.70;99.90;;;;;;5046637;28;20029;-83
2024/01/07 09:25:06;;;;;;;33.15;19.52;;;3.70;99.90;;;;;;5042560;28;20025;-80
2024/01/07 09:27:33;;;;;;;32.65;20.08;;;3.70;99.90;;;;;;5045725;28;20022;-80
2024/01/07 09:29:59;;;;;;;39.40;20.70;;;3.70;99.90;;;;;;5044171;28;20064;-80
2024/01/07 09:32:25;;;;;;;33.88;18.73;;;3.60;99.90;;;;;;5042450;28;20064;-78
2024/01/07 09:34:50;;;;;;;31.85;20.05;;;3.50;99.90;;;;;;5049031;28;20086;-78
2024/01/07 09:37:17;;;;;;;30.58;17.35;;;3.60;99.90;;;;;;5051676;28;20036;-79
2024/01/07 09:39:44;;;;;;;34.42;19.88;;;3.50;99.90;;;;;;5046520;28;20064;-80
2024/01/07 09:42:17;;;;;;;32.90;18.67;;;3.50;99.90;;;;;;5045424;28;20086;-79
2024/01/07 09:44:44;;;;;;;28.17;17.13;;;3.30;99.90;;;;;;5047978;28;20029;-79
2024/01/07 09:47:14;;;;;;;29.27;18.60;;;3.30;99.90;;;;;;5049131;28;20474;-75
2024/01/07 09:49:41;;;;;;;34.70;19.77;;;3.40;99.90;;;;;;5053580;28;20029;-79
2024/01/07 09:52:08;;;;;;;33.40;17.80;;;3.30;99.90;;;;;;5042492;28;20063;-79
2024/01/07 09:54:38;;;;;;;29.38;17.98;;;3.40;99.90;;;;;;5046026;28;20036;-74
2024/01/07 09:57:06;;;;;;;32.30;18.35;;;3.40;99.90;;;;;;5045303;28;20489;-81
2024/01/07 09:59:32;;;;;;;28.85;17.40;;;3.50;99.90;;;;;;5043617;28;20032;-80
2024/01/07 10:01:58;;;;;;;31.00;17.75;;;3.40;99.90;;;;;;5045848;28;20029;-79
2024/01/07 10:04:25;;;;;;;26.90;16.15;;;3.50;99.90;;;;;;5008349;28;20029;-81
2024/01/07 10:06:52;;;;;;;30.10;16.63;;;3.50;99.90;;;;;;5040411;28;20470;-80
2024/01/07 10:09:21;;;;;;;27.30;16.98;;;3.50;99.90;;;;;;5035104;28;20029;-77
2024/01/07 10:11:47;;;;;;;31.48;17.25;;;3.50;99.90;;;;;;5034212;28;20064;-81
2024/01/07 10:14:13;;;;;;;31.02;17.15;;;3.30;99.90;;;;;;5035800;28;20047;-77
2024/01/07 10:16:39;;;;;;;25.23;15.88;;;3.30;99.90;;;;;;5038628;28;20030;-76
2024/01/07 10:19:07;;;;;;;28.25;17.83;;;3.30;99.90;;;;;;5043535;28;20017;-77
2024/01/07 10:21:33;;;;;;;27.50;16.90;;;3.40;99.90;;;;;;5036969;28;20324;-79
2024/01/07 10:24:10;;;;;;;29.65;17.33;;;3.40;99.90;;;;;;5035550;28;20476;-81
2024/01/07 10:26:40;;;;;;;24.23;15.88;;;3.40;99.90;;;;;;5035023;28;20048;-79
2024/01/07 10:29:06;;;;;;;25.48;16.30;;;3.50;99.90;;;;;;5039868;28;20052;-77
2024/01/07 10:31:32;;;;;;;28.95;18.05;;;3.50;99.90;;;;;;5037734;28;20086;-79
2024/01/07 10:33:58;;;;;;;27.02;17.63;;;3.60;99.90;;;;;;5035181;28;20056;-79
2024/01/07 10:36:25;;;;;;;25.55;16.85;;;3.60;99.90;;;;;;5033326;28;20466;-80
2024/01/07 10:38:51;;;;;;;24.33;16.98;;;3.60;99.90;;;;;;5040237;28;20040;-78
2024/01/07 10:41:21;;;;;;;25.65;16.13;;;3.50;99.90;;;;;;5032631;28;20036;-79
2024/01/07 10:43:48;;;;;;;25.17;16.40;;;3.50;99.90;;;;;;5036929;28;20083;-80
2024/01/07 10:46:14;;;;;;;26.48;17.02;;;3.50;99.90;;;;;;5038742;28;20501;-76
2024/01/07 10:49:04;;;;;;;26.85;15.93;;;3.40;99.90;;;;;;5031678;28;20493;-70
2024/01/07 10:51:34;;;;;;;21.92;15.00;;;3.30;99.90;;;;;;5035107;28;20109;-79
2024/01/07 10:54:00;;;;;;;22.83;16.20;;;3.30;99.90;;;;;;5036285;28;20037;-74
2024/01/07 10:56:40;;;;;;;24.00;15.40;;;3.30;99.90;;;;;;5037148;28;20020;-73
2024/01/07 10:59:06;;;;;;;27.83;16.08;;;3.40;99.90;;;;;;5037922;28;20029;-74
2024/01/07 11:01:33;;;;;;;21.23;15.27;;;3.40;99.90;;;;;;5035643;28;20390;-75
2024/01/07 11:04:16;;;;;;;21.42;16.05;;;3.50;99.90;;;;;;5030812;28;20382;-76
2024/01/07 11:07:04;;;;;;;22.63;15.27;;;3.50;99.90;;;;;;5034672;28;20103;-77
2024/01/07 11:09:39;;;;;;;17.45;13.77;;;3.60;99.90;;;;;;5041591;28;20017;-74
2024/01/07 11:12:07;;;;;;;20.20;14.07;;;3.60;99.90;;;;;;5034816;28;20028;-73
2024/01/07 11:14:42;;;;;;;21.40;13.70;;;3.50;99.90;;;;;;5036744;28;20040;-73
2024/01/07 11:17:08;;;;;;;16.85;12.85;;;3.60;99.90;;;;;;5036933;28;20099;-80
2024/01/07 11:19:36;;;;;;;17.92;13.63;;;3.50;99.90;;;;;;5036407;28;20067;-80
2024/01/07 11:22:32;;;;;;;17.30;13.48;;;3.50;99.90;;;;;;5034239;28;20029;-75
2024/01/07 11:25:01;;;;;;;18.80;14.18;;;3.40;99.90;;;;;;5036979;28;20025;-80
2024/01/07 11:27:33;;;;;;;20.48;13.13;;;3.20;99.90;;;;;;5037638;28;20052;-80
2024/01/07 11:30:09;;;;;;;17.90;13.88;;;3.30;99.90;;;;;;5037647;28;20613;-80
2024/01/07 11:32:34;;;;;;;17.45;12.55;;;3.40;99.90;;;;;;5031463;28;20128;-79
2024/01/07 11:35:02;;;;;;;21.25;13.65;;;3.40;99.90;;;;;;5038168;28;20175;-80
2024/01/07 11:37:28;;;;;;;17.00;13.60;;;3.30;99.90;;;;;;5033775;28;20021;-76
2024/01/07 11:39:57;;;;;;;22.75;13.75;;;3.30;99.90;;;;;;5035140;28;20044;-79
2024/01/07 11:42:24;;;;;;;15.35;12.15;;;3.40;99.90;;;;;;5038619;28;20112;-81
2024/01/07 11:44:52;;;;;;;16.83;12.27;;;3.40;99.90;;;;;;5034851;28;20090;-80
2024/01/07 11:47:19;;;;;;;18.13;12.45;;;3.30;99.90;;;;;;5039472;28;20104;-81
2024/01/07 11:49:45;;;;;;;15.27;11.95;;;3.40;99.90;;;;;;5037688;28;20060;-81
2024/01/07 11:52:12;;;;;;;16.95;11.95;;;3.30;99.90;;;;;;5038079;28;20017;-75
2024/01/07 11:54:38;;;;;;;14.48;11.80;;;3.30;99.90;;;;;;5036586;28;20036;-81
2024/01/07 11:57:05;;;;;;;16.65;11.88;;;3.40;99.90;;;;;;5037175;28;20040;-80
2024/01/07 11:59:31;;;;;;;16.40;12.23;;;3.40;99.90;;;;;;5034600;28;20032;-80
2024/01/07 12:01:59;;;;;;;14.30;11.70;;;3.40;99.90;;;;;;5039585;28;20025;-79
2024/01/07 12:04:26;;;;;;;15.18;11.57;;;3.50;99.90;;;;;;5035854;28;20040;-76
2024/01/07 12:06:52;;;;;;;14.43;11.52;;;3.20;99.90;;;;;;5036846;28;20021;-79
2024/01/07 12:09:18;;;;;;;16.23;11.85;;;3.20;99.90;;;;;;5034038;28;20339;-79
2024/01/07 12:11:44;;;;;;;15.93;12.55;;;3.40;99.90;;;;;;5038959;28;20016;-76
2024/01/07 12:14:11;;;;;;;16.40;11.60;;;3.40;99.90;;;;;;5035644;28;20055;-76
2024/01/07 12:16:38;;;;;;;18.85;12.32;;;3.30;99.90;;;;;;5040308;28;20017;-77
2024/01/07 12:19:03;;;;;;;15.20;11.98;;;3.30;99.90;;;;;;5036564;28;20832;-78
2024/01/07 12:21:30;;;;;;;18.08;12.95;;;3.20;99.90;;;;;;5038000;28;20029;-76
2024/01/07 12:23:56;;;;;;;16.10;12.30;;;3.10;99.90;;;;;;5043116;28;20029;-76
2024/01/07 12:26:27;;;;;;;18.52;13.15;;;3.10;99.90;;;;;;5036603;28;20040;-79
2024/01/07 12:29:06;;;;;;;18.65;12.73;;;3.20;99.90;;;;;;5038068;28;20025;-78
2024/01/07 12:31:33;;;;;;;21.73;12.65;;;3.30;99.90;;;;;;5037710;28;20111;-80
2024/01/07 12:33:59;;;;;;;20.23;12.57;;;3.30;99.90;;;;;;5039147;28;20537;-74